sensor_id;sensor_type;location;lat;lon;timestamp;temperature;humidity
26621;DHT22;14253;44.840;10.444;2023-03-01T00:01:34;4.50;99.90
26621;DHT22;14253;44.840;10.444;2023-03-01T00:04:00;4.40;99.90
26621;DHT22;14253;44.840;10.444;2023-03-01T00:06:27;4.50;99.90
26621;DHT22;14253;44.840;10.444;2023-03-01T00:08:53;4.50;99.90
26621;DHT22;14253;44.840;10.444;2023-03-01T00:11:22;4.50;99.90
26621;DHT22;14253;44.840;10.444;2023-03-01T00:13:50;4.40;99.90
26621;DHT22;14253;44.840;10.444;2023-03-01T00:16:26;4.40;99.90
26621;DHT22;14253;44.840;10.444;2023-03-01T00:18:54;4.40;99.90
26621;DHT22;14253;44.840;10.444;2023-03-01T00:21:21;4.40;99.90
26621;DHT22;14253;44.840;10.444;2023-03-01T00:23:48;4.40;99.90
26621;DHT22;14253;44.840;10.444;2023-03-01T00:26:15;4.40;99.90
26621;DHT22;14253;44.840;10.444;2023-03-01T00:28:42;4.30;99.90
26621;DHT22;14253;44.840;10.444;2023-03-01T00:31:11;4.20;99.90
26621;DHT22;14253;44.840;10.444;2023-03-01T00:33:38;4.20;99.90
26621;DHT22;14253;44.840;10.444;2023-03-01T00:36:04;4.20;99.90
26621;DHT22;14253;44.840;10.444;2023-03-01T00:38:35;4.10;99.90
26621;DHT22;14253;44.840;10.444;2023-03-01T00:41:05;4.00;99.90
26621;DHT22;14253;44.840;10.444;2023-03-01T00:43:32;4.00;99.90
26621;DHT22;14253;44.840;10.444;2023-03-01T00:46:10;4.00;99.90
26621;DHT22;14253;44.840;10.444;2023-03-01T00:48:37;3.90;99.90
26621;DHT22;14253;44.840;10.444;2023-03-01T00:51:13;3.80;99.90
26621;DHT22;14253;44.840;10.444;2023-03-01T00:53:39;3.90;99.90
26621;DHT22;14253;44.840;10.444;2023-03-01T00:56:07;3.80;99.90
26621;DHT22;14253;44.840;10.444;2023-03-01T00:58:34;3.80;99.90
26621;DHT22;14253;44.840;10.444;2023-03-01T01:01:06;3.70;99.90
26621;DHT22;14253;44.840;10.444;2023-03-01T01:03:32;3.70;99.90
26621;DHT22;14253;44.840;10.444;2023-03-01T01:05:58;3.60;99.90
26621;DHT22;14253;44.840;10.444;2023-03-01T01:08:24;3.60;99.90
26621;DHT22;14253;44.840;10.444;2023-03-01T01:10:50;3.50;99.90
26621;DHT22;14253;44.840;10.444;2023-03-01T01:13:16;3.40;99.90
26621;DHT22;14253;44.840;10.444;2023-03-01T01:15:42;3.40;99.90
26621;DHT22;14253;44.840;10.444;2023-03-01T01:18:08;3.30;99.90
26621;DHT22;14253;44.840;10.444;2023-03-01T01:20:36;3.30;99.90
26621;DHT22;14253;44.840;10.444;2023-03-01T01:23:05;3.30;99.90
26621;DHT22;14253;44.840;10.444;2023-03-01T01:25:34;3.30;99.90
26621;DHT22;14253;44.840;10.444;2023-03-01T01:28:00;3.30;99.90
26621;DHT22;14253;44.840;10.444;2023-03-01T01:30:26;3.30;99.90
26621;DHT22;14253;44.840;10.444;2023-03-01T01:32:52;3.20;99.90
26621;DHT22;14253;44.840;10.444;2023-03-01T01:35:18;3.20;99.90
26621;DHT22;14253;44.840;10.444;2023-03-01T01:37:44;3.20;99.90
26621;DHT22;14253;44.840;10.444;2023-03-01T01:40:10;3.10;99.90
26621;DHT22;14253;44.840;10.444;2023-03-01T01:42:36;3.20;99.90
26621;DHT22;14253;44.840;10.444;2023-03-01T01:47:55;3.20;99.90
26621;DHT22;14253;44.840;10.444;2023-03-01T01:50:23;3.10;99.90
26621;DHT22;14253;44.840;10.444;2023-03-01T01:52:51;3.10;99.90
26621;DHT22;14253;44.840;10.444;2023-03-01T01:55:22;3.10;99.90
26621;DHT22;14253;44.840;10.444;2023-03-01T01:57:53;3.10;99.90
26621;DHT22;14253;44.840;10.444;2023-03-01T02:00:21;3.00;99.90
26621;DHT22;14253;44.840;10.444;2023-03-01T02:02:51;3.00;99.90
26621;DHT22;14253;44.840;10.444;2023-03-01T02:08:06;2.90;99.90
26621;DHT22;14253;44.840;10.444;2023-03-01T02:10:34;2.80;99.90
26621;DHT22;14253;44.840;10.444;2023-03-01T02:13:02;2.70;99.90
26621;DHT22;14253;44.840;10.444;2023-03-01T02:15:32;2.60;99.90
26621;DHT22;14253;44.840;10.444;2023-03-01T02:17:59;2.50;99.90
26621;DHT22;14253;44.840;10.444;2023-03-01T02:20:39;2.40;99.90
26621;DHT22;14253;44.840;10.444;2023-03-01T02:23:07;2.30;99.90
26621;DHT22;14253;44.840;10.444;2023-03-01T02:30:45;2.50;99.90
26621;DHT22;14253;44.840;10.444;2023-03-01T02:33:33;2.50;99.90
26621;DHT22;14253;44.840;10.444;2023-03-01T02:36:20;2.60;99.90
26621;DHT22;14253;44.840;10.444;2023-03-01T02:38:48;2.60;99.90
26621;DHT22;14253;44.840;10.444;2023-03-01T02:41:17;2.60;99.90
26621;DHT22;14253;44.840;10.444;2023-03-01T02:43:45;2.70;99.90
26621;DHT22;14253;44.840;10.444;2023-03-01T02:46:19;2.70;99.90
26621;DHT22;14253;44.840;10.444;2023-03-01T02:48:53;2.70;99.90
26621;DHT22;14253;44.840;10.444;2023-03-01T02:54:07;2.70;99.90
26621;DHT22;14253;44.840;10.444;2023-03-01T02:56:36;2.80;99.90
26621;DHT22;14253;44.840;10.444;2023-03-01T02:59:02;2.80;99.90
26621;DHT22;14253;44.840;10.444;2023-03-01T03:01:29;2.70;99.90
26621;DHT22;14253;44.840;10.444;2023-03-01T03:04:09;2.70;99.90
26621;DHT22;14253;44.840;10.444;2023-03-01T03:06:36;2.70;99.90
26621;DHT22;14253;44.840;10.444;2023-03-01T03:09:04;2.70;99.90
26621;DHT22;14253;44.840;10.444;2023-03-01T03:11:30;2.70;99.90
26621;DHT22;14253;44.840;10.444;2023-03-01T03:13:58;2.90;99.90
26621;DHT22;14253;44.840;10.444;2023-03-01T03:16:24;2.90;99.90
26621;DHT22;14253;44.840;10.444;2023-03-01T03:18:51;3.00;99.90
26621;DHT22;14253;44.840;10.444;2023-03-01T03:21:16;3.00;99.90
26621;DHT22;14253;44.840;10.444;2023-03-01T03:23:43;3.00;99.90
26621;DHT22;14253;44.840;10.444;2023-03-01T03:26:09;3.00;99.90
26621;DHT22;14253;44.840;10.444;2023-03-01T03:28:39;3.10;99.90
26621;DHT22;14253;44.840;10.444;2023-03-01T03:31:07;3.10;99.90
26621;DHT22;14253;44.840;10.444;2023-03-01T03:33:33;3.00;99.90
26621;DHT22;14253;44.840;10.444;2023-03-01T03:35:59;3.00;99.90
26621;DHT22;14253;44.840;10.444;2023-03-01T03:38:25;2.90;99.90
26621;DHT22;14253;44.840;10.444;2023-03-01T03:40:59;2.80;99.90
26621;DHT22;14253;44.840;10.444;2023-03-01T03:43:30;2.80;99.90
26621;DHT22;14253;44.840;10.444;2023-03-01T03:45:56;2.80;99.90
26621;DHT22;14253;44.840;10.444;2023-03-01T03:48:23;2.80;99.90
26621;DHT22;14253;44.840;10.444;2023-03-01T03:50:52;2.80;99.90
26621;DHT22;14253;44.840;10.444;2023-03-01T03:53:19;2.80;99.90
26621;DHT22;14253;44.840;10.444;2023-03-01T03:55:46;2.80;99.90
26621;DHT22;14253;44.840;10.444;2023-03-01T03:58:15;2.80;99.90
26621;DHT22;14253;44.840;10.444;2023-03-01T04:00:43;2.80;99.90
26621;DHT22;14253;44.840;10.444;2023-03-01T04:03:12;2.80;99.90
26621;DHT22;14253;44.840;10.444;2023-03-01T04:05:39;2.90;99.90
26621;DHT22;14253;44.840;10.444;2023-03-01T04:08:06;2.90;99.90
26621;DHT22;14253;44.840;10.444;2023-03-01T04:10:41;2.90;99.90
26621;DHT22;14253;44.840;10.444;2023-03-01T04:13:10;2.90;99.90
26621;DHT22;14253;44.840;10.444;2023-03-01T04:15:36;2.90;99.90
26621;DHT22;14253;44.840;10.444;2023-03-01T04:18:03;2.90;99.90
26621;DHT22;14253;44.840;10.444;2023-03-01T04:20:30;2.90;99.90
26621;DHT22;14253;44.840;10.444;2023-03-01T04:23:08;2.90;99.90
26621;DHT22;14253;44.840;10.444;2023-03-01T04:25:40;2.90;99.90
26621;DHT22;14253;44.840;10.444;2023-03-01T04:28:07;2.90;99.90
26621;DHT22;14253;44.840;10.444;2023-03-01T04:30:35;3.10;99.90
26621;DHT22;14253;44.840;10.444;2023-03-01T04:33:03;3.10;99.90
26621;DHT22;14253;44.840;10.444;2023-03-01T04:35:30;3.10;99.90
26621;DHT22;14253;44.840;10.444;2023-03-01T04:37:56;3.20;99.90
26621;DHT22;14253;44.840;10.444;2023-03-01T04:40:22;3.20;99.90
26621;DHT22;14253;44.840;10.444;2023-03-01T04:42:48;3.20;99.90
26621;DHT22;14253;44.840;10.444;2023-03-01T04:45:14;3.20;99.90
26621;DHT22;14253;44.840;10.444;2023-03-01T04:47:41;3.20;99.90
26621;DHT22;14253;44.840;10.444;2023-03-01T04:50:09;3.20;99.90
26621;DHT22;14253;44.840;10.444;2023-03-01T04:52:35;3.20;99.90
26621;DHT22;14253;44.840;10.444;2023-03-01T04:55:02;3.30;99.90
26621;DHT22;14253;44.840;10.444;2023-03-01T04:57:29;3.30;99.90
26621;DHT22;14253;44.840;10.444;2023-03-01T04:59:55;3.30;99.90
26621;DHT22;14253;44.840;10.444;2023-03-01T05:02:21;3.10;99.90
26621;DHT22;14253;44.840;10.444;2023-03-01T05:04:47;3.20;99.90
26621;DHT22;14253;44.840;10.444;2023-03-01T05:07:13;3.20;99.90
26621;DHT22;14253;44.840;10.444;2023-03-01T05:09:48;3.10;99.90
26621;DHT22;14253;44.840;10.444;2023-03-01T05:12:14;3.10;99.90
26621;DHT22;14253;44.840;10.444;2023-03-01T05:14:41;3.10;99.90
26621;DHT22;14253;44.840;10.444;2023-03-01T05:17:07;3.10;99.90
26621;DHT22;14253;44.840;10.444;2023-03-01T05:19:33;3.10;99.90
26621;DHT22;14253;44.840;10.444;2023-03-01T05:21:59;3.10;99.90
26621;DHT22;14253;44.840;10.444;2023-03-01T05:24:33;3.10;99.90
26621;DHT22;14253;44.840;10.444;2023-03-01T05:27:00;3.10;99.90
26621;DHT22;14253;44.840;10.444;2023-03-01T05:29:28;3.20;99.90
26621;DHT22;14253;44.840;10.444;2023-03-01T05:31:55;3.10;99.90
26621;DHT22;14253;44.840;10.444;2023-03-01T05:34:34;3.20;99.90
26621;DHT22;14253;44.840;10.444;2023-03-01T05:37:02;3.20;99.90
26621;DHT22;14253;44.840;10.444;2023-03-01T05:39:29;3.30;99.90
26621;DHT22;14253;44.840;10.444;2023-03-01T05:41:57;3.30;99.90
26621;DHT22;14253;44.840;10.444;2023-03-01T05:44:24;3.30;99.90
26621;DHT22;14253;44.840;10.444;2023-03-01T05:46:51;3.30;99.90
26621;DHT22;14253;44.840;10.444;2023-03-01T05:49:17;3.30;99.90
26621;DHT22;14253;44.840;10.444;2023-03-01T05:51:48;3.40;99.90
26621;DHT22;14253;44.840;10.444;2023-03-01T05:54:17;3.30;99.90
26621;DHT22;14253;44.840;10.444;2023-03-01T05:56:44;3.30;99.90
26621;DHT22;14253;44.840;10.444;2023-03-01T05:59:11;3.30;99.90
26621;DHT22;14253;44.840;10.444;2023-03-01T06:01:37;3.30;99.90
26621;DHT22;14253;44.840;10.444;2023-03-01T06:04:04;3.30;99.90
26621;DHT22;14253;44.840;10.444;2023-03-01T06:06:37;3.30;99.90
26621;DHT22;14253;44.840;10.444;2023-03-01T06:09:06;3.30;99.90
26621;DHT22;14253;44.840;10.444;2023-03-01T06:11:38;3.20;99.90
26621;DHT22;14253;44.840;10.444;2023-03-01T06:14:35;3.20;99.90
26621;DHT22;14253;44.840;10.444;2023-03-01T06:17:17;3.20;99.90
26621;DHT22;14253;44.840;10.444;2023-03-01T06:19:43;3.10;99.90
26621;DHT22;14253;44.840;10.444;2023-03-01T06:22:10;3.10;99.90
26621;DHT22;14253;44.840;10.444;2023-03-01T06:24:37;3.30;99.90
26621;DHT22;14253;44.840;10.444;2023-03-01T06:27:03;3.30;99.90
26621;DHT22;14253;44.840;10.444;2023-03-01T06:29:30;3.30;99.90
26621;DHT22;14253;44.840;10.444;2023-03-01T06:31:55;3.30;99.90
26621;DHT22;14253;44.840;10.444;2023-03-01T06:34:21;3.30;99.90
26621;DHT22;14253;44.840;10.444;2023-03-01T06:36:47;3.30;99.90
26621;DHT22;14253;44.840;10.444;2023-03-01T06:39:13;3.40;99.90
26621;DHT22;14253;44.840;10.444;2023-03-01T06:41:42;3.40;99.90
26621;DHT22;14253;44.840;10.444;2023-03-01T06:44:07;3.40;99.90
26621;DHT22;14253;44.840;10.444;2023-03-01T06:46:33;3.50;99.90
26621;DHT22;14253;44.840;10.444;2023-03-01T06:48:59;3.50;99.90
26621;DHT22;14253;44.840;10.444;2023-03-01T06:51:25;3.50;99.90
26621;DHT22;14253;44.840;10.444;2023-03-01T06:53:51;3.50;99.90
26621;DHT22;14253;44.840;10.444;2023-03-01T06:56:17;3.60;99.90
26621;DHT22;14253;44.840;10.444;2023-03-01T06:58:43;3.70;99.90
26621;DHT22;14253;44.840;10.444;2023-03-01T07:01:09;3.80;99.90
26621;DHT22;14253;44.840;10.444;2023-03-01T07:03:35;3.90;99.90
26621;DHT22;14253;44.840;10.444;2023-03-01T07:06:01;3.90;99.90
26621;DHT22;14253;44.840;10.444;2023-03-01T07:08:27;4.00;99.90
26621;DHT22;14253;44.840;10.444;2023-03-01T07:10:57;4.10;99.90
26621;DHT22;14253;44.840;10.444;2023-03-01T07:13:23;4.20;99.90
26621;DHT22;14253;44.840;10.444;2023-03-01T07:15:49;4.30;99.90
26621;DHT22;14253;44.840;10.444;2023-03-01T07:18:15;4.50;99.90
26621;DHT22;14253;44.840;10.444;2023-03-01T07:20:41;4.60;99.90
26621;DHT22;14253;44.840;10.444;2023-03-01T07:23:07;4.70;99.90
26621;DHT22;14253;44.840;10.444;2023-03-01T07:25:33;4.70;99.90
26621;DHT22;14253;44.840;10.444;2023-03-01T07:27:59;4.80;99.90
26621;DHT22;14253;44.840;10.444;2023-03-01T07:30:25;4.90;99.90
26621;DHT22;14253;44.840;10.444;2023-03-01T07:32:54;5.00;99.90
26621;DHT22;14253;44.840;10.444;2023-03-01T07:35:21;5.10;99.90
26621;DHT22;14253;44.840;10.444;2023-03-01T07:37:47;5.10;99.90
26621;DHT22;14253;44.840;10.444;2023-03-01T07:40:13;5.20;99.90
26621;DHT22;14253;44.840;10.444;2023-03-01T07:42:39;5.20;99.90
26621;DHT22;14253;44.840;10.444;2023-03-01T07:45:05;5.30;99.90
26621;DHT22;14253;44.840;10.444;2023-03-01T07:47:32;5.40;99.90
26621;DHT22;14253;44.840;10.444;2023-03-01T07:49:58;5.40;99.90
26621;DHT22;14253;44.840;10.444;2023-03-01T07:52:24;5.40;99.90
26621;DHT22;14253;44.840;10.444;2023-03-01T07:54:50;5.30;99.90
26621;DHT22;14253;44.840;10.444;2023-03-01T07:57:16;5.30;99.90
26621;DHT22;14253;44.840;10.444;2023-03-01T07:59:42;5.20;99.90
26621;DHT22;14253;44.840;10.444;2023-03-01T08:02:09;5.20;99.90
26621;DHT22;14253;44.840;10.444;2023-03-01T08:04:35;5.20;99.90
26621;DHT22;14253;44.840;10.444;2023-03-01T08:07:04;5.20;99.90
26621;DHT22;14253;44.840;10.444;2023-03-01T08:09:30;5.30;99.90
26621;DHT22;14253;44.840;10.444;2023-03-01T08:11:57;5.30;99.90
26621;DHT22;14253;44.840;10.444;2023-03-01T08:14:25;5.30;99.90
26621;DHT22;14253;44.840;10.444;2023-03-01T08:16:51;5.30;99.90
26621;DHT22;14253;44.840;10.444;2023-03-01T08:19:17;5.30;99.90
26621;DHT22;14253;44.840;10.444;2023-03-01T08:21:43;5.30;99.90
26621;DHT22;14253;44.840;10.444;2023-03-01T08:24:09;5.20;99.90
26621;DHT22;14253;44.840;10.444;2023-03-01T08:26:36;5.10;99.90
26621;DHT22;14253;44.840;10.444;2023-03-01T08:29:03;5.00;99.90
26621;DHT22;14253;44.840;10.444;2023-03-01T08:31:34;4.90;99.90
26621;DHT22;14253;44.840;10.444;2023-03-01T08:34:03;4.80;99.90
26621;DHT22;14253;44.840;10.444;2023-03-01T08:36:36;4.80;99.90
26621;DHT22;14253;44.840;10.444;2023-03-01T08:39:03;4.70;99.90
26621;DHT22;14253;44.840;10.444;2023-03-01T08:41:30;4.70;99.90
26621;DHT22;14253;44.840;10.444;2023-03-01T08:43:56;4.70;99.90
26621;DHT22;14253;44.840;10.444;2023-03-01T08:46:34;4.70;99.90
26621;DHT22;14253;44.840;10.444;2023-03-01T08:49:07;4.80;99.90
26621;DHT22;14253;44.840;10.444;2023-03-01T08:51:34;4.80;99.90
26621;DHT22;14253;44.840;10.444;2023-03-01T08:54:13;4.80;99.90
26621;DHT22;14253;44.840;10.444;2023-03-01T08:56:41;4.80;99.90
26621;DHT22;14253;44.840;10.444;2023-03-01T08:59:07;4.90;99.90
26621;DHT22;14253;44.840;10.444;2023-03-01T09:01:33;5.00;99.90
26621;DHT22;14253;44.840;10.444;2023-03-01T09:03:59;5.10;99.90
26621;DHT22;14253;44.840;10.444;2023-03-01T09:06:25;5.20;99.90
26621;DHT22;14253;44.840;10.444;2023-03-01T09:08:51;5.30;99.90
26621;DHT22;14253;44.840;10.444;2023-03-01T09:11:20;5.40;99.90
26621;DHT22;14253;44.840;10.444;2023-03-01T09:13:47;5.50;99.90
26621;DHT22;14253;44.840;10.444;2023-03-01T09:16:16;5.70;99.90
26621;DHT22;14253;44.840;10.444;2023-03-01T09:18:44;5.80;99.90
26621;DHT22;14253;44.840;10.444;2023-03-01T09:21:14;5.80;99.90
26621;DHT22;14253;44.840;10.444;2023-03-01T09:23:43;5.80;99.90
26621;DHT22;14253;44.840;10.444;2023-03-01T09:26:14;5.70;99.90
26621;DHT22;14253;44.840;10.444;2023-03-01T09:28:42;5.60;99.90
26621;DHT22;14253;44.840;10.444;2023-03-01T09:31:10;5.60;99.90
26621;DHT22;14253;44.840;10.444;2023-03-01T09:33:39;5.50;99.90
26621;DHT22;14253;44.840;10.444;2023-03-01T09:36:07;5.60;99.90
26621;DHT22;14253;44.840;10.444;2023-03-01T09:38:33;5.60;99.90
26621;DHT22;14253;44.840;10.444;2023-03-01T09:41:01;5.60;99.90
26621;DHT22;14253;44.840;10.444;2023-03-01T09:43:51;5.60;99.90
26621;DHT22;14253;44.840;10.444;2023-03-01T09:46:21;5.60;99.90
26621;DHT22;14253;44.840;10.444;2023-03-01T09:49:21;5.60;99.90
26621;DHT22;14253;44.840;10.444;2023-03-01T09:54:48;5.60;99.90
26621;DHT22;14253;44.840;10.444;2023-03-01T10:02:36;5.60;99.90
26621;DHT22;14253;44.840;10.444;2023-03-01T10:08:06;5.80;99.90
26621;DHT22;14253;44.840;10.444;2023-03-01T10:10:39;5.80;99.90
26621;DHT22;14253;44.840;10.444;2023-03-01T10:13:22;5.90;99.90
26621;DHT22;14253;44.840;10.444;2023-03-01T10:16:13;5.90;99.90
26621;DHT22;14253;44.840;10.444;2023-03-01T10:18:41;6.00;99.90
26621;DHT22;14253;44.840;10.444;2023-03-01T10:21:17;6.00;99.90
26621;DHT22;14253;44.840;10.444;2023-03-01T10:23:45;6.00;99.90
26621;DHT22;14253;44.840;10.444;2023-03-01T10:28:55;5.90;99.90
26621;DHT22;14253;44.840;10.444;2023-03-01T10:31:26;6.00;99.90
26621;DHT22;14253;44.840;10.444;2023-03-01T10:33:55;6.00;99.90
26621;DHT22;14253;44.840;10.444;2023-03-01T10:36:23;6.00;99.90
26621;DHT22;14253;44.840;10.444;2023-03-01T10:41:15;6.30;99.90
26621;DHT22;14253;44.840;10.444;2023-03-01T10:44:01;6.40;99.90
26621;DHT22;14253;44.840;10.444;2023-03-01T10:46:35;6.40;99.90
26621;DHT22;14253;44.840;10.444;2023-03-01T10:49:18;6.30;99.90
26621;DHT22;14253;44.840;10.444;2023-03-01T10:51:46;6.40;99.90
26621;DHT22;14253;44.840;10.444;2023-03-01T10:54:29;6.40;99.90
26621;DHT22;14253;44.840;10.444;2023-03-01T10:57:01;6.50;99.90
26621;DHT22;14253;44.840;10.444;2023-03-01T10:59:35;6.40;99.90
26621;DHT22;14253;44.840;10.444;2023-03-01T11:02:30;6.50;99.90
26621;DHT22;14253;44.840;10.444;2023-03-01T11:07:56;6.50;99.90
26621;DHT22;14253;44.840;10.444;2023-03-01T11:12:51;6.60;99.90
26621;DHT22;14253;44.840;10.444;2023-03-01T11:15:26;6.50;99.90
26621;DHT22;14253;44.840;10.444;2023-03-01T11:17:53;6.50;99.90
26621;DHT22;14253;44.840;10.444;2023-03-01T11:20:35;6.50;99.90
26621;DHT22;14253;44.840;10.444;2023-03-01T11:23:05;6.40;99.90
26621;DHT22;14253;44.840;10.444;2023-03-01T11:25:40;6.50;99.90
26621;DHT22;14253;44.840;10.444;2023-03-01T11:28:12;6.50;99.90
26621;DHT22;14253;44.840;10.444;2023-03-01T11:36:32;6.60;99.90
26621;DHT22;14253;44.840;10.444;2023-03-01T11:41:48;6.60;99.90
26621;DHT22;14253;44.840;10.444;2023-03-01T11:44:24;6.60;99.90
26621;DHT22;14253;44.840;10.444;2023-03-01T11:54:55;6.50;99.90
26621;DHT22;14253;44.840;10.444;2023-03-01T12:06:01;6.40;99.90
26621;DHT22;14253;44.840;10.444;2023-03-01T12:08:35;6.30;99.90
26621;DHT22;14253;44.840;10.444;2023-03-01T12:14:13;6.10;99.90
26621;DHT22;14253;44.840;10.444;2023-03-01T12:49:33;5.20;99.90
26621;DHT22;14253;44.840;10.444;2023-03-01T12:52:14;5.20;99.90
26621;DHT22;14253;44.840;10.444;2023-03-01T12:54:42;5.20;99.90
26621;DHT22;14253;44.840;10.444;2023-03-01T12:57:29;5.10;99.90
26621;DHT22;14253;44.840;10.444;2023-03-01T13:06:39;5.00;99.90
26621;DHT22;14253;44.840;10.444;2023-03-01T13:09:19;5.00;99.90
26621;DHT22;14253;44.840;10.444;2023-03-01T13:11:36;5.10;99.90
26621;DHT22;14253;44.840;10.444;2023-03-01T13:16:53;5.00;99.90
26621;DHT22;14253;44.840;10.444;2023-03-01T13:19:21;4.90;99.90
26621;DHT22;14253;44.840;10.444;2023-03-01T13:21:49;4.90;99.90
26621;DHT22;14253;44.840;10.444;2023-03-01T13:29:49;4.90;99.90
26621;DHT22;14253;44.840;10.444;2023-03-01T13:37:45;4.90;99.90
26621;DHT22;14253;44.840;10.444;2023-03-01T13:42:45;5.00;99.90
26621;DHT22;14253;44.840;10.444;2023-03-01T13:48:00;5.00;99.90
26621;DHT22;14253;44.840;10.444;2023-03-01T13:50:38;5.00;99.90
26621;DHT22;14253;44.840;10.444;2023-03-01T13:53:06;4.90;99.90
26621;DHT22;14253;44.840;10.444;2023-03-01T13:55:43;4.90;99.90
26621;DHT22;14253;44.840;10.444;2023-03-01T13:58:29;4.80;99.90
26621;DHT22;14253;44.840;10.444;2023-03-01T14:01:06;4.80;99.90
26621;DHT22;14253;44.840;10.444;2023-03-01T14:03:41;4.80;99.90
26621;DHT22;14253;44.840;10.444;2023-03-01T14:06:16;4.80;99.90
26621;DHT22;14253;44.840;10.444;2023-03-01T14:08:46;4.70;99.90
26621;DHT22;14253;44.840;10.444;2023-03-01T14:19:58;4.70;99.90
26621;DHT22;14253;44.840;10.444;2023-03-01T14:22:27;4.70;99.90
26621;DHT22;14253;44.840;10.444;2023-03-01T14:25:16;4.70;99.90
26621;DHT22;14253;44.840;10.444;2023-03-01T14:27:43;4.70;99.90
26621;DHT22;14253;44.840;10.444;2023-03-01T14:30:46;4.70;99.90
26621;DHT22;14253;44.840;10.444;2023-03-01T14:33:25;4.80;99.90
26621;DHT22;14253;44.840;10.444;2023-03-01T14:36:01;4.90;99.90
26621;DHT22;14253;44.840;10.444;2023-03-01T14:38:45;4.90;99.90
26621;DHT22;14253;44.840;10.444;2023-03-01T14:41:20;4.80;99.90
26621;DHT22;14253;44.840;10.444;2023-03-01T14:43:57;4.80;99.90
26621;DHT22;14253;44.840;10.444;2023-03-01T14:46:30;4.90;99.90
26621;DHT22;14253;44.840;10.444;2023-03-01T14:49:02;5.00;99.90
26621;DHT22;14253;44.840;10.444;2023-03-01T14:51:28;5.00;99.90
26621;DHT22;14253;44.840;10.444;2023-03-01T14:53:55;5.00;99.90
26621;DHT22;14253;44.840;10.444;2023-03-01T14:56:21;5.00;99.90
26621;DHT22;14253;44.840;10.444;2023-03-01T14:58:52;5.00;99.90
26621;DHT22;14253;44.840;10.444;2023-03-01T15:01:18;5.00;99.90
26621;DHT22;14253;44.840;10.444;2023-03-01T15:03:48;5.00;99.90
26621;DHT22;14253;44.840;10.444;2023-03-01T15:06:18;5.10;99.90
26621;DHT22;14253;44.840;10.444;2023-03-01T15:08:48;5.00;99.90
26621;DHT22;14253;44.840;10.444;2023-03-01T15:13:48;5.00;99.90
26621;DHT22;14253;44.840;10.444;2023-03-01T15:16:27;5.00;99.90
26621;DHT22;14253;44.840;10.444;2023-03-01T15:19:05;5.00;99.90
26621;DHT22;14253;44.840;10.444;2023-03-01T15:21:34;4.90;99.90
26621;DHT22;14253;44.840;10.444;2023-03-01T15:24:22;4.90;99.90
26621;DHT22;14253;44.840;10.444;2023-03-01T15:26:57;4.80;99.90
26621;DHT22;14253;44.840;10.444;2023-03-01T15:29:25;4.80;99.90
26621;DHT22;14253;44.840;10.444;2023-03-01T15:32:03;4.80;99.90
26621;DHT22;14253;44.840;10.444;2023-03-01T15:34:36;4.80;99.90
26621;DHT22;14253;44.840;10.444;2023-03-01T15:37:04;4.70;99.90
26621;DHT22;14253;44.840;10.444;2023-03-01T15:47:39;4.60;99.90
26621;DHT22;14253;44.840;10.444;2023-03-01T15:50:21;4.60;99.90
26621;DHT22;14253;44.840;10.444;2023-03-01T15:52:48;4.60;99.90
26621;DHT22;14253;44.840;10.444;2023-03-01T15:57:49;4.40;99.90
26621;DHT22;14253;44.840;10.444;2023-03-01T16:00:16;4.40;99.90
26621;DHT22;14253;44.840;10.444;2023-03-01T16:02:43;4.30;99.90
26621;DHT22;14253;44.840;10.444;2023-03-01T16:05:32;4.30;99.90
26621;DHT22;14253;44.840;10.444;2023-03-01T16:07:58;4.30;99.90
26621;DHT22;14253;44.840;10.444;2023-03-01T16:10:26;4.20;99.90
26621;DHT22;14253;44.840;10.444;2023-03-01T16:12:53;4.20;99.90
26621;DHT22;14253;44.840;10.444;2023-03-01T16:15:25;4.10;99.90
26621;DHT22;14253;44.840;10.444;2023-03-01T16:17:54;4.10;99.90
26621;DHT22;14253;44.840;10.444;2023-03-01T16:20:23;4.10;99.90
26621;DHT22;14253;44.840;10.444;2023-03-01T16:22:50;4.10;99.90
26621;DHT22;14253;44.840;10.444;2023-03-01T16:25:17;4.10;99.90
26621;DHT22;14253;44.840;10.444;2023-03-01T16:27:45;4.10;99.90
26621;DHT22;14253;44.840;10.444;2023-03-01T16:30:13;4.10;99.90
26621;DHT22;14253;44.840;10.444;2023-03-01T16:32:40;4.10;99.90
26621;DHT22;14253;44.840;10.444;2023-03-01T16:35:08;4.10;99.90
26621;DHT22;14253;44.840;10.444;2023-03-01T16:37:35;4.10;99.90
26621;DHT22;14253;44.840;10.444;2023-03-01T16:40:03;4.00;99.90
26621;DHT22;14253;44.840;10.444;2023-03-01T16:42:36;4.00;99.90
26621;DHT22;14253;44.840;10.444;2023-03-01T16:45:07;4.00;99.90
26621;DHT22;14253;44.840;10.444;2023-03-01T16:47:33;3.90;99.90
26621;DHT22;14253;44.840;10.444;2023-03-01T16:49:59;3.90;99.90
26621;DHT22;14253;44.840;10.444;2023-03-01T16:52:25;3.80;1.00
26621;DHT22;14253;44.840;10.444;2023-03-01T16:54:51;3.90;1.00
26621;DHT22;14253;44.840;10.444;2023-03-01T16:57:18;3.80;1.00
26621;DHT22;14253;44.840;10.444;2023-03-01T16:59:44;3.80;1.00
26621;DHT22;14253;44.840;10.444;2023-03-01T17:02:14;3.90;1.00
26621;DHT22;14253;44.840;10.444;2023-03-01T17:04:51;3.90;1.00
26621;DHT22;14253;44.840;10.444;2023-03-01T17:07:17;3.80;1.00
26621;DHT22;14253;44.840;10.444;2023-03-01T17:09:43;3.80;1.00
26621;DHT22;14253;44.840;10.444;2023-03-01T17:12:12;3.80;1.00
26621;DHT22;14253;44.840;10.444;2023-03-01T17:14:39;3.90;1.00
26621;DHT22;14253;44.840;10.444;2023-03-01T17:17:07;3.90;1.00
26621;DHT22;14253;44.840;10.444;2023-03-01T17:19:35;3.90;1.00
26621;DHT22;14253;44.840;10.444;2023-03-01T17:22:05;3.90;1.00
26621;DHT22;14253;44.840;10.444;2023-03-01T17:24:35;4.00;1.00
26621;DHT22;14253;44.840;10.444;2023-03-01T17:27:02;4.00;1.00
26621;DHT22;14253;44.840;10.444;2023-03-01T17:29:28;3.90;1.00
26621;DHT22;14253;44.840;10.444;2023-03-01T17:31:54;3.90;1.00
26621;DHT22;14253;44.840;10.444;2023-03-01T17:34:22;3.90;1.00
26621;DHT22;14253;44.840;10.444;2023-03-01T17:36:48;3.80;1.00
26621;DHT22;14253;44.840;10.444;2023-03-01T17:39:17;3.90;1.00
26621;DHT22;14253;44.840;10.444;2023-03-01T17:41:52;3.90;1.00
26621;DHT22;14253;44.840;10.444;2023-03-01T17:44:19;4.00;1.00
26621;DHT22;14253;44.840;10.444;2023-03-01T17:46:45;4.00;1.00
26621;DHT22;14253;44.840;10.444;2023-03-01T17:49:11;4.00;1.00
26621;DHT22;14253;44.840;10.444;2023-03-01T17:51:37;4.00;1.00
26621;DHT22;14253;44.840;10.444;2023-03-01T17:54:03;4.00;1.00
26621;DHT22;14253;44.840;10.444;2023-03-01T17:56:30;4.10;1.00
26621;DHT22;14253;44.840;10.444;2023-03-01T17:58:56;4.10;1.00
26621;DHT22;14253;44.840;10.444;2023-03-01T18:01:22;4.10;1.00
26621;DHT22;14253;44.840;10.444;2023-03-01T18:03:52;4.20;1.00
26621;DHT22;14253;44.840;10.444;2023-03-01T18:06:20;4.20;1.00
26621;DHT22;14253;44.840;10.444;2023-03-01T18:08:47;4.10;1.00
26621;DHT22;14253;44.840;10.444;2023-03-01T18:11:16;4.10;1.00